sensor_id;sensor_type;location;lat;lon;timestamp;pressure;altitude;pressure_sealevel;temperature;humidity
61961;BME280;47923;42.506;24.192;2023-05-24T00:01:31;95270.75;;;8.63;94.75
61961;BME280;47923;42.506;24.192;2023-05-24T00:03:57;95244.25;;;8.49;95.30
61961;BME280;47923;42.506;24.192;2023-05-24T00:06:25;95155.03;;;8.00;96.10
61961;BME280;47923;42.506;24.192;2023-05-24T00:08:54;95318.31;;;8.91;95.81
61961;BME280;47923;42.506;24.192;2023-05-24T00:11:20;95326.28;;;9.03;95.25
61961;BME280;47923;42.506;24.192;2023-05-24T00:13:47;95322.91;;;9.06;94.91
61961;BME280;47923;42.506;24.192;2023-05-24T00:16:13;95238.47;;;8.47;93.49
61961;BME280;47923;42.506;24.192;2023-05-24T00:18:39;95181.25;;;8.03;93.46
61961;BME280;47923;42.506;24.192;2023-05-24T00:21:14;95240.09;;;8.36;93.19
61961;BME280;47923;42.506;24.192;2023-05-24T00:23:40;95323.63;;;8.87;94.36
61961;BME280;47923;42.506;24.192;2023-05-24T00:26:07;95270.16;;;8.38;94.70
61961;BME280;47923;42.506;24.192;2023-05-24T00:28:33;95355.19;;;8.71;95.39
61961;BME280;47923;42.506;24.192;2023-05-24T00:30:59;95318.84;;;8.65;96.00
61961;BME280;47923;42.506;24.192;2023-05-24T00:33:25;95176.19;;;7.70;96.16
61961;BME280;47923;42.506;24.192;2023-05-24T00:35:53;95198.53;;;7.86;94.84
61961;BME280;47923;42.506;24.192;2023-05-24T00:38:22;95324.97;;;8.62;94.61
61961;BME280;47923;42.506;24.192;2023-05-24T00:40:48;95304.53;;;8.61;93.64
61961;BME280;47923;42.506;24.192;2023-05-24T00:43:14;95306.72;;;8.55;93.02
61961;BME280;47923;42.506;24.192;2023-05-24T00:45:39;95307.75;;;8.50;94.48
61961;BME280;47923;42.506;24.192;2023-05-24T00:48:05;95238.97;;;8.06;93.78
61961;BME280;47923;42.506;24.192;2023-05-24T00:50:31;95074.63;;;7.00;94.20
61961;BME280;47923;42.506;24.192;2023-05-24T00:52:59;95223.59;;;7.90;94.89
61961;BME280;47923;42.506;24.192;2023-05-24T00:55:27;95308.72;;;8.42;95.76
61961;BME280;47923;42.506;24.192;2023-05-24T00:57:54;95320.25;;;8.43;94.99
61961;BME280;47923;42.506;24.192;2023-05-24T01:00:21;95331.03;;;8.43;95.20
61961;BME280;47923;42.506;24.192;2023-05-24T01:02:47;95297.50;;;8.40;95.34
61961;BME280;47923;42.506;24.192;2023-05-24T01:05:13;95241.03;;;7.96;95.08
61961;BME280;47923;42.506;24.192;2023-05-24T01:10:38;95327.50;;;8.26;94.94
61961;BME280;47923;42.506;24.192;2023-05-24T01:16:19;95306.50;;;8.16;94.97
61961;BME280;47923;42.506;24.192;2023-05-24T01:18:51;95301.25;;;8.08;96.02
61961;BME280;47923;42.506;24.192;2023-05-24T01:24:31;95296.34;;;8.10;96.36
61961;BME280;47923;42.506;24.192;2023-05-24T01:27:06;95287.13;;;8.11;96.71
61961;BME280;47923;42.506;24.192;2023-05-24T01:29:33;95152.88;;;7.14;96.81
61961;BME280;47923;42.506;24.192;2023-05-24T01:32:00;95298.16;;;8.06;97.04
61961;BME280;47923;42.506;24.192;2023-05-24T01:34:25;95106.75;;;6.69;97.06
61961;BME280;47923;42.506;24.192;2023-05-24T01:36:51;95303.25;;;7.95;96.79
61961;BME280;47923;42.506;24.192;2023-05-24T01:39:18;95257.72;;;7.58;96.22
61961;BME280;47923;42.506;24.192;2023-05-24T01:45:03;94923.13;;;5.45;97.16
61961;BME280;47923;42.506;24.192;2023-05-24T01:50:19;95325.25;;;7.85;98.43
61961;BME280;47923;42.506;24.192;2023-05-24T01:52:48;95024.31;;;6.01;97.84
61961;BME280;47923;42.506;24.192;2023-05-24T01:55:17;95093.97;;;6.37;98.44
61961;BME280;47923;42.506;24.192;2023-05-24T01:57:44;95132.16;;;6.59;98.21
61961;BME280;47923;42.506;24.192;2023-05-24T02:00:13;95243.94;;;7.32;98.39
61961;BME280;47923;42.506;24.192;2023-05-24T02:02:39;95286.94;;;7.60;99.12
61961;BME280;47923;42.506;24.192;2023-05-24T02:05:05;95293.34;;;7.55;99.13
61961;BME280;47923;42.506;24.192;2023-05-24T02:07:31;94793.59;;;4.24;98.90
61961;BME280;47923;42.506;24.192;2023-05-24T02:09:56;95289.31;;;7.49;99.44
61961;BME280;47923;42.506;24.192;2023-05-24T02:12:22;95234.03;;;7.20;99.55
61961;BME280;47923;42.506;24.192;2023-05-24T02:14:47;95141.00;;;6.59;99.68
61961;BME280;47923;42.506;24.192;2023-05-24T02:17:16;95298.41;;;7.57;99.21
61961;BME280;47923;42.506;24.192;2023-05-24T02:19:42;95296.16;;;7.59;99.30
61961;BME280;47923;42.506;24.192;2023-05-24T02:22:07;95002.91;;;5.64;98.90
61961;BME280;47923;42.506;24.192;2023-05-24T02:24:33;94804.41;;;4.40;99.50
61961;BME280;47923;42.506;24.192;2023-05-24T02:26:59;95286.94;;;7.32;100.00
61961;BME280;47923;42.506;24.192;2023-05-24T02:29:25;95178.75;;;6.79;100.00
61961;BME280;47923;42.506;24.192;2023-05-24T02:31:51;95291.78;;;7.54;100.00
61961;BME280;47923;42.506;24.192;2023-05-24T02:34:21;95294.91;;;7.56;99.56
61961;BME280;47923;42.506;24.192;2023-05-24T02:36:48;95073.06;;;6.03;98.43
61961;BME280;47923;42.506;24.192;2023-05-24T02:39:13;95299.56;;;7.43;98.84
61961;BME280;47923;42.506;24.192;2023-05-24T02:41:39;95289.03;;;7.38;98.82
61961;BME280;47923;42.506;24.192;2023-05-24T02:44:05;95288.84;;;7.31;98.93
61961;BME280;47923;42.506;24.192;2023-05-24T02:46:31;95023.91;;;5.50;99.20
61961;BME280;47923;42.506;24.192;2023-05-24T02:48:56;95293.56;;;7.22;100.00
61961;BME280;47923;42.506;24.192;2023-05-24T02:51:22;95082.88;;;5.99;99.85
61961;BME280;47923;42.506;24.192;2023-05-24T02:53:47;94855.16;;;4.49;99.28
61961;BME280;47923;42.506;24.192;2023-05-24T02:56:13;95293.69;;;7.54;100.00
61961;BME280;47923;42.506;24.192;2023-05-24T02:58:42;95013.75;;;5.68;99.55
61961;BME280;47923;42.506;24.192;2023-05-24T03:01:10;95292.91;;;7.53;99.68
61961;BME280;47923;42.506;24.192;2023-05-24T03:03:37;95290.16;;;7.37;99.71
61961;BME280;47923;42.506;24.192;2023-05-24T03:06:03;94688.88;;;3.61;98.90
61961;BME280;47923;42.506;24.192;2023-05-24T03:08:28;95228.53;;;7.16;99.25
61961;BME280;47923;42.506;24.192;2023-05-24T03:10:54;95301.59;;;7.62;99.19
61961;BME280;47923;42.506;24.192;2023-05-24T03:13:21;95303.63;;;7.65;99.25
61961;BME280;47923;42.506;24.192;2023-05-24T03:15:47;95248.88;;;7.30;99.32
61961;BME280;47923;42.506;24.192;2023-05-24T03:18:13;95311.72;;;7.81;99.31
61961;BME280;47923;42.506;24.192;2023-05-24T03:20:38;94941.91;;;5.33;98.35
61961;BME280;47923;42.506;24.192;2023-05-24T03:23:04;95304.75;;;8.08;98.79
61961;BME280;47923;42.506;24.192;2023-05-24T03:25:30;95153.16;;;7.25;97.86
61961;BME280;47923;42.506;24.192;2023-05-24T03:27:55;95302.47;;;8.38;97.34
61961;BME280;47923;42.506;24.192;2023-05-24T03:30:21;95192.69;;;7.84;96.15
61961;BME280;47923;42.506;24.192;2023-05-24T03:32:46;94758.31;;;4.95;94.94
61961;BME280;47923;42.506;24.192;2023-05-24T03:35:12;95086.63;;;7.50;94.64
61961;BME280;47923;42.506;24.192;2023-05-24T03:37:37;94713.63;;;4.84;93.87
61961;BME280;47923;42.506;24.192;2023-05-24T03:40:03;95104.22;;;7.79;93.81
61961;BME280;47923;42.506;24.192;2023-05-24T03:42:29;95304.41;;;9.24;93.42
61961;BME280;47923;42.506;24.192;2023-05-24T03:44:54;94995.69;;;7.36;91.76
61961;BME280;47923;42.506;24.192;2023-05-24T03:47:20;95261.00;;;9.29;91.60
61961;BME280;47923;42.506;24.192;2023-05-24T03:49:46;95315.34;;;9.89;90.55
61961;BME280;47923;42.506;24.192;2023-05-24T03:52:11;95239.03;;;11.40;87.20
61961;BME280;47923;42.506;24.192;2023-05-24T03:54:37;95308.59;;;14.62;72.56
61961;BME280;47923;42.506;24.192;2023-05-24T03:57:02;95332.50;;;16.66;61.00
61961;BME280;47923;42.506;24.192;2023-05-24T03:59:28;95226.69;;;17.66;53.70
61961;BME280;47923;42.506;24.192;2023-05-24T04:01:55;95301.44;;;19.22;48.56
61961;BME280;47923;42.506;24.192;2023-05-24T04:04:21;95306.66;;;20.19;46.06
61961;BME280;47923;42.506;24.192;2023-05-24T04:06:46;95308.63;;;20.91;43.77
61961;BME280;47923;42.506;24.192;2023-05-24T04:09:12;95317.47;;;21.31;42.72
61961;BME280;47923;42.506;24.192;2023-05-24T04:11:37;95234.38;;;21.56;41.89
61961;BME280;47923;42.506;24.192;2023-05-24T04:14:03;95329.06;;;23.06;39.21
61961;BME280;47923;42.506;24.192;2023-05-24T04:16:29;95301.03;;;23.33;38.47
61961;BME280;47923;42.506;24.192;2023-05-24T04:18:58;95307.19;;;23.37;38.13
61961;BME280;47923;42.506;24.192;2023-05-24T04:21:26;95303.03;;;24.55;36.19
61961;BME280;47923;42.506;24.192;2023-05-24T04:23:52;95127.22;;;24.11;34.30
61961;BME280;47923;42.506;24.192;2023-05-24T04:26:17;94987.06;;;23.57;33.63
61961;BME280;47923;42.506;24.192;2023-05-24T04:28:43;95292.31;;;26.10;31.67
61961;BME280;47923;42.506;24.192;2023-05-24T04:31:09;95315.06;;;26.24;32.42
61961;BME280;47923;42.506;24.192;2023-05-24T04:33:36;95300.13;;;26.39;32.06
61961;BME280;47923;42.506;24.192;2023-05-24T04:36:03;95045.75;;;25.29;32.30
61961;BME280;47923;42.506;24.192;2023-05-24T04:38:29;95263.13;;;28.04;29.68
61961;BME280;47923;42.506;24.192;2023-05-24T04:40:57;95313.47;;;27.97;29.09
61961;BME280;47923;42.506;24.192;2023-05-24T04:43:23;95219.19;;;27.49;28.90
61961;BME280;47923;42.506;24.192;2023-05-24T04:45:52;95189.03;;;27.27;29.35
61961;BME280;47923;42.506;24.192;2023-05-24T04:48:21;95223.53;;;27.26;29.04
61961;BME280;47923;42.506;24.192;2023-05-24T04:50:50;95098.81;;;26.55;28.92
61961;BME280;47923;42.506;24.192;2023-05-24T04:53:16;95227.91;;;28.11;29.00
61961;BME280;47923;42.506;24.192;2023-05-24T04:55:44;95288.31;;;29.39;26.92
61961;BME280;47923;42.506;24.192;2023-05-24T04:58:10;95301.38;;;28.98;27.90
61961;BME280;47923;42.506;24.192;2023-05-24T05:00:35;95295.47;;;30.07;26.89
61961;BME280;47923;42.506;24.192;2023-05-24T05:03:01;95310.47;;;32.38;23.83
61961;BME280;47923;42.506;24.192;2023-05-24T05:05:26;95310.28;;;32.87;23.52
61961;BME280;47923;42.506;24.192;2023-05-24T05:07:52;95292.63;;;32.19;23.86
61961;BME280;47923;42.506;24.192;2023-05-24T05:10:17;95277.53;;;31.34;25.22
61961;BME280;47923;42.506;24.192;2023-05-24T05:12:43;95300.31;;;32.35;23.64
61961;BME280;47923;42.506;24.192;2023-05-24T05:15:09;95180.50;;;31.72;24.24
61961;BME280;47923;42.506;24.192;2023-05-24T05:17:35;95184.75;;;33.41;22.60
61961;BME280;47923;42.506;24.192;2023-05-24T05:20:01;95088.69;;;33.05;21.21
61961;BME280;47923;42.506;24.192;2023-05-24T05:22:30;95261.72;;;34.70;21.19
61961;BME280;47923;42.506;24.192;2023-05-24T05:24:56;95290.09;;;34.19;21.45
61961;BME280;47923;42.506;24.192;2023-05-24T05:27:21;95252.16;;;34.13;21.46
61961;BME280;47923;42.506;24.192;2023-05-24T05:29:47;95319.31;;;34.76;20.83
61961;BME280;47923;42.506;24.192;2023-05-24T05:32:14;95239.53;;;33.09;21.74
61961;BME280;47923;42.506;24.192;2023-05-24T05:34:40;95323.72;;;32.66;23.16
61961;BME280;47923;42.506;24.192;2023-05-24T05:37:06;95129.38;;;31.27;23.80
61961;BME280;47923;42.506;24.192;2023-05-24T05:39:31;95299.34;;;32.83;23.28
61961;BME280;47923;42.506;24.192;2023-05-24T05:41:57;95318.41;;;33.07;23.41
61961;BME280;47923;42.506;24.192;2023-05-24T05:44:23;95316.13;;;33.06;23.76
61961;BME280;47923;42.506;24.192;2023-05-24T05:46:48;95308.25;;;34.54;22.50
61961;BME280;47923;42.506;24.192;2023-05-24T05:49:14;95204.53;;;36.46;20.88
61961;BME280;47923;42.506;24.192;2023-05-24T05:51:43;95244.59;;;38.03;19.62
61961;BME280;47923;42.506;24.192;2023-05-24T05:54:08;95203.00;;;38.30;18.78
61961;BME280;47923;42.506;24.192;2023-05-24T05:56:39;95321.47;;;38.17;19.20
61961;BME280;47923;42.506;24.192;2023-05-24T05:59:10;95317.47;;;38.26;19.16
61961;BME280;47923;42.506;24.192;2023-05-24T06:01:37;95310.09;;;38.09;19.13
61961;BME280;47923;42.506;24.192;2023-05-24T06:04:03;95177.94;;;37.19;19.41
61961;BME280;47923;42.506;24.192;2023-05-24T06:06:28;95152.16;;;37.75;18.53
61961;BME280;47923;42.506;24.192;2023-05-24T06:08:54;95334.94;;;39.55;17.43
61961;BME280;47923;42.506;24.192;2023-05-24T06:11:20;95317.41;;;39.77;16.24
61961;BME280;47923;42.506;24.192;2023-05-24T06:13:48;95175.25;;;40.28;15.41
61961;BME280;47923;42.506;24.192;2023-05-24T06:16:14;95306.59;;;43.05;14.40
61961;BME280;47923;42.506;24.192;2023-05-24T06:18:40;95331.16;;;41.74;14.63
61961;BME280;47923;42.506;24.192;2023-05-24T06:21:05;95323.75;;;40.94;16.11
61961;BME280;47923;42.506;24.192;2023-05-24T06:23:35;95332.06;;;41.84;15.72
61961;BME280;47923;42.506;24.192;2023-05-24T06:26:00;95320.38;;;42.35;15.77
61961;BME280;47923;42.506;24.192;2023-05-24T06:28:26;95329.25;;;41.68;15.47
61961;BME280;47923;42.506;24.192;2023-05-24T06:30:51;95167.72;;;40.39;15.98
61961;BME280;47923;42.506;24.192;2023-05-24T06:33:17;95329.63;;;41.88;15.73
61961;BME280;47923;42.506;24.192;2023-05-24T06:35:43;95310.94;;;41.54;15.83
61961;BME280;47923;42.506;24.192;2023-05-24T06:38:08;95322.03;;;43.44;14.77
61961;BME280;47923;42.506;24.192;2023-05-24T06:40:34;95296.69;;;40.70;15.73
61961;BME280;47923;42.506;24.192;2023-05-24T06:43:00;95322.16;;;42.08;15.42
61961;BME280;47923;42.506;24.192;2023-05-24T06:45:25;95318.13;;;42.34;13.62
61961;BME280;47923;42.506;24.192;2023-05-24T06:47:51;95107.75;;;42.30;13.08
61961;BME280;47923;42.506;24.192;2023-05-24T06:50:16;95241.66;;;42.36;10.92
61961;BME280;47923;42.506;24.192;2023-05-24T06:52:42;95302.00;;;44.73;10.93
61961;BME280;47923;42.506;24.192;2023-05-24T06:55:08;95276.59;;;44.57;11.06
61961;BME280;47923;42.506;24.192;2023-05-24T06:57:33;95170.81;;;43.72;11.01
61961;BME280;47923;42.506;24.192;2023-05-24T06:59:59;95291.75;;;44.43;11.28
61961;BME280;47923;42.506;24.192;2023-05-24T07:02:24;95277.44;;;44.77;11.18
61961;BME280;47923;42.506;24.192;2023-05-24T07:04:52;95314.81;;;44.02;10.84
61961;BME280;47923;42.506;24.192;2023-05-24T07:07:19;95307.88;;;43.36;12.42
61961;BME280;47923;42.506;24.192;2023-05-24T07:09:45;95192.00;;;43.02;11.26
61961;BME280;47923;42.506;24.192;2023-05-24T07:12:11;95322.38;;;40.87;12.14
61961;BME280;47923;42.506;24.192;2023-05-24T07:14:37;95271.53;;;42.77;11.74
61961;BME280;47923;42.506;24.192;2023-05-24T07:17:02;95303.91;;;43.31;10.58
61961;BME280;47923;42.506;24.192;2023-05-24T07:19:28;95300.91;;;42.72;11.12
61961;BME280;47923;42.506;24.192;2023-05-24T07:21:55;95299.84;;;43.17;10.31
61961;BME280;47923;42.506;24.192;2023-05-24T07:24:20;95300.53;;;42.35;11.45
61961;BME280;47923;42.506;24.192;2023-05-24T07:26:47;95252.63;;;40.39;11.97
61961;BME280;47923;42.506;24.192;2023-05-24T07:29:13;95214.50;;;39.44;12.71
61961;BME280;47923;42.506;24.192;2023-05-24T07:31:38;95309.19;;;42.37;11.51
61961;BME280;47923;42.506;24.192;2023-05-24T07:34:04;95254.47;;;42.44;11.80
61961;BME280;47923;42.506;24.192;2023-05-24T07:36:29;95294.44;;;44.85;11.58
61961;BME280;47923;42.506;24.192;2023-05-24T07:38:57;95312.28;;;41.38;12.13
61961;BME280;47923;42.506;24.192;2023-05-24T07:41:26;95226.69;;;41.32;12.47
61961;BME280;47923;42.506;24.192;2023-05-24T07:43:55;95263.50;;;41.09;12.84
61961;BME280;47923;42.506;24.192;2023-05-24T07:46:21;95180.41;;;41.14;12.96
61961;BME280;47923;42.506;24.192;2023-05-24T07:48:47;95281.25;;;39.06;13.70
61961;BME280;47923;42.506;24.192;2023-05-24T07:51:12;95316.25;;;42.29;11.93
61961;BME280;47923;42.506;24.192;2023-05-24T07:53:38;95126.00;;;39.57;12.68
61961;BME280;47923;42.506;24.192;2023-05-24T07:56:04;95316.94;;;40.38;13.97
61961;BME280;47923;42.506;24.192;2023-05-24T07:58:32;95200.91;;;37.49;14.61
61961;BME280;47923;42.506;24.192;2023-05-24T08:00:57;95296.41;;;36.19;15.98
61961;BME280;47923;42.506;24.192;2023-05-24T08:03:23;95318.31;;;35.83;16.65
61961;BME280;47923;42.506;24.192;2023-05-24T08:05:50;95192.66;;;33.95;17.69
61961;BME280;47923;42.506;24.192;2023-05-24T08:08:16;95327.31;;;32.94;19.89
61961;BME280;47923;42.506;24.192;2023-05-24T08:10:45;95321.78;;;32.01;20.47
61961;BME280;47923;42.506;24.192;2023-05-24T08:13:10;95063.00;;;29.71;20.96
61961;BME280;47923;42.506;24.192;2023-05-24T08:15:36;95329.69;;;32.14;21.27
61961;BME280;47923;42.506;24.192;2023-05-24T08:18:01;95336.06;;;31.60;20.81
61961;BME280;47923;42.506;24.192;2023-05-24T08:20:27;95325.56;;;31.07;22.18
61961;BME280;47923;42.506;24.192;2023-05-24T08:22:53;95143.47;;;29.02;22.73
61961;BME280;47923;42.506;24.192;2023-05-24T08:25:18;95334.78;;;30.35;22.83
61961;BME280;47923;42.506;24.192;2023-05-24T08:27:45;95334.69;;;30.50;23.27
61961;BME280;47923;42.506;24.192;2023-05-24T08:30:11;95201.06;;;29.42;23.08
61961;BME280;47923;42.506;24.192;2023-05-24T08:32:38;95329.75;;;29.72;23.39
61961;BME280;47923;42.506;24.192;2023-05-24T08:35:04;95245.06;;;28.24;25.04
61961;BME280;47923;42.506;24.192;2023-05-24T08:37:29;95272.44;;;28.16;25.02
61961;BME280;47923;42.506;24.192;2023-05-24T08:39:57;95051.34;;;26.62;24.69
61961;BME280;47923;42.506;24.192;2023-05-24T08:42:24;95352.78;;;28.73;25.44
61961;BME280;47923;42.506;24.192;2023-05-24T08:44:58;95353.22;;;28.86;25.15
61961;BME280;47923;42.506;24.192;2023-05-24T08:47:31;95349.69;;;28.42;25.60
61961;BME280;47923;42.506;24.192;2023-05-24T08:49:57;95351.19;;;27.89;27.13
61961;BME280;47923;42.506;24.192;2023-05-24T08:52:23;95357.56;;;27.23;29.17
61961;BME280;47923;42.506;24.192;2023-05-24T08:54:50;95133.44;;;25.11;30.70
61961;BME280;47923;42.506;24.192;2023-05-24T08:57:17;95340.91;;;26.11;31.55
61961;BME280;47923;42.506;24.192;2023-05-24T08:59:44;95368.56;;;26.21;31.27
61961;BME280;47923;42.506;24.192;2023-05-24T09:02:13;95368.72;;;26.54;32.20
61961;BME280;47923;42.506;24.192;2023-05-24T09:04:40;95353.13;;;27.17;32.22
61961;BME280;47923;42.506;24.192;2023-05-24T09:07:08;95352.38;;;28.51;28.77
61961;BME280;47923;42.506;24.192;2023-05-24T09:09:36;95344.47;;;29.23;24.29
61961;BME280;47923;42.506;24.192;2023-05-24T09:12:10;95350.84;;;29.99;24.69
61961;BME280;47923;42.506;24.192;2023-05-24T09:14:44;95342.31;;;29.88;24.38
61961;BME280;47923;42.506;24.192;2023-05-24T09:17:11;95341.72;;;29.43;24.97
61961;BME280;47923;42.506;24.192;2023-05-24T09:19:44;95053.53;;;27.79;23.83
61961;BME280;47923;42.506;24.192;2023-05-24T09:22:13;94948.50;;;26.84;22.55
61961;BME280;47923;42.506;24.192;2023-05-24T09:24:41;95312.59;;;29.04;22.36
61961;BME280;47923;42.506;24.192;2023-05-24T09:27:06;95248.50;;;28.63;22.75
61961;BME280;47923;42.506;24.192;2023-05-24T09:29:36;95356.47;;;29.14;22.63
61961;BME280;47923;42.506;24.192;2023-05-24T09:32:08;95354.88;;;28.93;23.71
61961;BME280;47923;42.506;24.192;2023-05-24T09:34:38;95340.41;;;28.59;24.42
61961;BME280;47923;42.506;24.192;2023-05-24T09:37:04;95212.22;;;27.15;25.63
61961;BME280;47923;42.506;24.192;2023-05-24T09:39:31;95275.41;;;27.02;25.70
61961;BME280;47923;42.506;24.192;2023-05-24T09:41:56;95318.66;;;27.18;25.79
61961;BME280;47923;42.506;24.192;2023-05-24T09:44:26;95361.31;;;28.16;26.95
61961;BME280;47923;42.506;24.192;2023-05-24T09:46:53;95180.94;;;27.15;26.76
61961;BME280;47923;42.506;24.192;2023-05-24T09:49:22;95122.78;;;27.06;26.62
61961;BME280;47923;42.506;24.192;2023-05-24T09:51:47;95262.84;;;28.02;25.44
61961;BME280;47923;42.506;24.192;2023-05-24T09:54:14;95349.72;;;29.91;25.87
61961;BME280;47923;42.506;24.192;2023-05-24T09:56:45;95341.53;;;30.49;24.65
61961;BME280;47923;42.506;24.192;2023-05-24T09:59:11;95195.53;;;29.63;23.83
61961;BME280;47923;42.506;24.192;2023-05-24T10:01:37;95352.91;;;31.34;22.84
61961;BME280;47923;42.506;24.192;2023-05-24T10:04:03;95355.31;;;30.12;23.11
61961;BME280;47923;42.506;24.192;2023-05-24T10:06:35;95357.47;;;29.47;23.32
61961;BME280;47923;42.506;24.192;2023-05-24T10:09:04;95371.56;;;29.78;23.88
61961;BME280;47923;42.506;24.192;2023-05-24T10:11:35;95334.47;;;29.66;26.58
61961;BME280;47923;42.506;24.192;2023-05-24T10:14:05;95224.97;;;28.29;28.09
61961;BME280;47923;42.506;24.192;2023-05-24T10:16:32;95368.78;;;29.43;28.35
61961;BME280;47923;42.506;24.192;2023-05-24T10:18:58;95393.16;;;28.30;27.96
61961;BME280;47923;42.506;24.192;2023-05-24T10:21:23;95336.13;;;26.30;29.19
61961;BME280;47923;42.506;24.192;2023-05-24T10:23:59;95232.69;;;24.68;30.87
61961;BME280;47923;42.506;24.192;2023-05-24T10:26:28;95401.22;;;25.08;32.38
61961;BME280;47923;42.506;24.192;2023-05-24T10:28:59;95295.94;;;23.79;34.29
61961;BME280;47923;42.506;24.192;2023-05-24T10:31:36;95226.84;;;23.82;33.12
61961;BME280;47923;42.506;24.192;2023-05-24T10:34:04;95401.31;;;25.27;35.08
61961;BME280;47923;42.506;24.192;2023-05-24T10:36:31;95371.91;;;25.11;35.99
61961;BME280;47923;42.506;24.192;2023-05-24T10:38:57;95347.50;;;25.10;33.88
61961;BME280;47923;42.506;24.192;2023-05-24T10:41:25;95398.66;;;25.63;34.91
61961;BME280;47923;42.506;24.192;2023-05-24T10:43:52;95390.56;;;25.78;35.52
61961;BME280;47923;42.506;24.192;2023-05-24T10:46:19;95377.91;;;25.68;36.43
61961;BME280;47923;42.506;24.192;2023-05-24T10:48:58;95375.59;;;25.67;35.92
61961;BME280;47923;42.506;24.192;2023-05-24T10:51:37;95328.41;;;25.02;36.53
61961;BME280;47923;42.506;24.192;2023-05-24T10:54:13;95213.47;;;24.24;38.07
61961;BME280;47923;42.506;24.192;2023-05-24T10:56:41;95296.41;;;25.23;37.02
61961;BME280;47923;42.506;24.192;2023-05-24T10:59:08;95335.69;;;25.95;36.57
61961;BME280;47923;42.506;24.192;2023-05-24T11:01:33;95377.00;;;25.71;37.14
61961;BME280;47923;42.506;24.192;2023-05-24T11:07:01;95371.28;;;26.76;36.08
61961;BME280;47923;42.506;24.192;2023-05-24T11:09:28;95110.72;;;24.97;35.60
61961;BME280;47923;42.506;24.192;2023-05-24T11:11:59;95374.38;;;26.68;35.51
61961;BME280;47923;42.506;24.192;2023-05-24T11:14:28;95367.72;;;26.84;35.01
61961;BME280;47923;42.506;24.192;2023-05-24T11:16:57;95386.38;;;26.75;34.55
61961;BME280;47923;42.506;24.192;2023-05-24T11:19:44;95360.09;;;26.33;35.17
61961;BME280;47923;42.506;24.192;2023-05-24T11:22:12;95290.63;;;25.58;36.17
61961;BME280;47923;42.506;24.192;2023-05-24T11:24:39;95354.91;;;26.17;35.58
61961;BME280;47923;42.506;24.192;2023-05-24T11:27:05;95236.50;;;25.39;35.69
61961;BME280;47923;42.506;24.192;2023-05-24T11:29:32;95350.88;;;26.27;34.80
61961;BME280;47923;42.506;24.192;2023-05-24T11:32:04;95202.09;;;25.21;35.56
61961;BME280;47923;42.506;24.192;2023-05-24T11:34:30;95349.22;;;26.02;33.77
61961;BME280;47923;42.506;24.192;2023-05-24T11:36:57;95341.03;;;26.26;33.66
61961;BME280;47923;42.506;24.192;2023-05-24T11:39:28;95337.94;;;26.61;32.86
61961;BME280;47923;42.506;24.192;2023-05-24T11:41:55;95165.41;;;25.30;31.89
61961;BME280;47923;42.506;24.192;2023-05-24T11:44:21;95341.44;;;26.70;32.12
61961;BME280;47923;42.506;24.192;2023-05-24T11:46:46;95333.53;;;26.08;35.32
61961;BME280;47923;42.506;24.192;2023-05-24T11:49:13;95279.34;;;25.25;35.68
61961;BME280;47923;42.506;24.192;2023-05-24T11:51:39;95331.66;;;25.78;35.11
61961;BME280;47923;42.506;24.192;2023-05-24T11:54:05;95260.81;;;25.71;35.36
61961;BME280;47923;42.506;24.192;2023-05-24T11:56:31;95159.38;;;25.41;33.64
61961;BME280;47923;42.506;24.192;2023-05-24T11:59:15;95326.59;;;26.31;30.23
61961;BME280;47923;42.506;24.192;2023-05-24T12:01:42;95277.25;;;26.02;30.26
61961;BME280;47923;42.506;24.192;2023-05-24T12:04:08;95028.13;;;24.44;30.43
61961;BME280;47923;42.506;24.192;2023-05-24T12:06:38;95320.13;;;26.86;30.21
61961;BME280;47923;42.506;24.192;2023-05-24T12:09:05;95127.50;;;26.00;28.79
61961;BME280;47923;42.506;24.192;2023-05-24T12:11:39;95313.84;;;27.90;27.97
61961;BME280;47923;42.506;24.192;2023-05-24T12:14:07;95313.88;;;28.44;27.19
61961;BME280;47923;42.506;24.192;2023-05-24T12:16:35;95317.81;;;28.52;26.97
61961;BME280;47923;42.506;24.192;2023-05-24T12:19:01;95279.91;;;28.25;25.22
61961;BME280;47923;42.506;24.192;2023-05-24T12:21:29;95168.19;;;27.47;26.61
61961;BME280;47923;42.506;24.192;2023-05-24T12:23:55;95325.53;;;28.33;27.08
61961;BME280;47923;42.506;24.192;2023-05-24T12:26:21;95075.59;;;26.52;28.62
61961;BME280;47923;42.506;24.192;2023-05-24T12:28:52;95327.78;;;28.20;28.92
61961;BME280;47923;42.506;24.192;2023-05-24T12:31:19;95164.81;;;26.80;29.56
61961;BME280;47923;42.506;24.192;2023-05-24T12:33:46;95333.69;;;26.84;32.87
61961;BME280;47923;42.506;24.192;2023-05-24T12:36:12;95333.50;;;25.99;35.24
61961;BME280;47923;42.506;24.192;2023-05-24T12:38:37;95343.78;;;25.62;35.60
61961;BME280;47923;42.506;24.192;2023-05-24T12:41:04;95323.94;;;25.54;36.00
61961;BME280;47923;42.506;24.192;2023-05-24T12:43:31;95316.06;;;25.25;36.48
61961;BME280;47923;42.506;24.192;2023-05-24T12:45:56;95314.81;;;24.77;36.87
61961;BME280;47923;42.506;24.192;2023-05-24T12:48:22;95312.00;;;24.68;38.10
61961;BME280;47923;42.506;24.192;2023-05-24T12:50:47;95123.66;;;23.27;41.75
61961;BME280;47923;42.506;24.192;2023-05-24T12:53:13;95297.88;;;24.35;43.04
61961;BME280;47923;42.506;24.192;2023-05-24T12:55:38;95301.78;;;24.03;41.85
61961;BME280;47923;42.506;24.192;2023-05-24T12:58:04;95138.91;;;23.19;42.40
61961;BME280;47923;42.506;24.192;2023-05-24T13:00:32;95280.81;;;24.58;39.62
61961;BME280;47923;42.506;24.192;2023-05-24T13:02:58;95207.44;;;24.48;40.56
61961;BME280;47923;42.506;24.192;2023-05-24T13:05:25;95317.97;;;24.35;43.63
61961;BME280;47923;42.506;24.192;2023-05-24T13:07:52;95165.84;;;23.14;43.30
61961;BME280;47923;42.506;24.192;2023-05-24T13:10:18;95290.34;;;23.57;44.27